Allandale, Florida
Current Conditions -  °F | °C
As of 1:53 PM on Thursday 27 Nov 2014 (Local Time) from KDAB Reporting Station
Clear Clear  
Wind Chill: 66°   Ceiling: Unl
Heat Index: 66°   Visibility: 10mi
Dew Point: 42°   Wind: 13mph
Humidity: 42%   Direction: 310°NW
Pressure: 30.18"   Gusts: NA
Location:  29.1486°N, 81.0301°W
Report Text: KDAB 271853Z 31011KT 10SM CLR 19/06 A3018 RMK AO2 SLP218 T01890056
Loading
Personal Weather Stations






























Interactive Weather Map New forecast layout! Learn more

10-Day Weather Forecast

Advertisements
Track Severe Weather on mobile